sensor_id;sensor_type;location;lat;lon;timestamp;P1;durP1;ratioP1;P2;durP2;ratioP2
32734;SDS011;19112;51.076;3.706;2023-01-25T00:00:19;108.90;;;49.55;;
32734;SDS011;19112;51.076;3.706;2023-01-25T00:02:45;111.10;;;47.33;;
32734;SDS011;19112;51.076;3.706;2023-01-25T00:05:11;103.03;;;46.30;;
32734;SDS011;19112;51.076;3.706;2023-01-25T00:07:36;105.70;;;47.47;;
32734;SDS011;19112;51.076;3.706;2023-01-25T00:10:02;110.03;;;45.78;;
32734;SDS011;19112;51.076;3.706;2023-01-25T00:12:28;101.13;;;46.10;;
32734;SDS011;19112;51.076;3.706;2023-01-25T00:14:54;111.43;;;48.60;;
32734;SDS011;19112;51.076;3.706;2023-01-25T00:17:20;106.05;;;48.33;;
32734;SDS011;19112;51.076;3.706;2023-01-25T00:19:46;105.82;;;43.60;;
32734;SDS011;19112;51.076;3.706;2023-01-25T00:22:11;108.18;;;47.92;;
32734;SDS011;19112;51.076;3.706;2023-01-25T00:24:37;112.60;;;48.50;;
32734;SDS011;19112;51.076;3.706;2023-01-25T00:27:03;111.45;;;47.40;;
32734;SDS011;19112;51.076;3.706;2023-01-25T00:29:29;109.93;;;47.55;;
32734;SDS011;19112;51.076;3.706;2023-01-25T00:32:06;109.75;;;47.05;;
32734;SDS011;19112;51.076;3.706;2023-01-25T00:34:56;112.88;;;47.63;;
32734;SDS011;19112;51.076;3.706;2023-01-25T00:37:23;106.85;;;46.60;;
32734;SDS011;19112;51.076;3.706;2023-01-25T00:40:03;109.55;;;48.65;;
32734;SDS011;19112;51.076;3.706;2023-01-25T00:42:30;109.25;;;47.33;;
32734;SDS011;19112;51.076;3.706;2023-01-25T00:44:56;112.18;;;47.55;;
32734;SDS011;19112;51.076;3.706;2023-01-25T00:47:22;108.40;;;47.25;;
32734;SDS011;19112;51.076;3.706;2023-01-25T00:49:48;107.80;;;47.00;;
32734;SDS011;19112;51.076;3.706;2023-01-25T00:52:14;102.90;;;47.03;;
32734;SDS011;19112;51.076;3.706;2023-01-25T00:54:40;113.85;;;47.80;;
32734;SDS011;19112;51.076;3.706;2023-01-25T00:57:06;111.15;;;47.15;;
32734;SDS011;19112;51.076;3.706;2023-01-25T00:59:33;109.40;;;45.42;;
32734;SDS011;19112;51.076;3.706;2023-01-25T01:01:59;102.80;;;46.83;;
32734;SDS011;19112;51.076;3.706;2023-01-25T01:04:26;111.05;;;47.03;;
32734;SDS011;19112;51.076;3.706;2023-01-25T01:06:52;109.43;;;47.05;;
32734;SDS011;19112;51.076;3.706;2023-01-25T01:09:19;106.22;;;45.80;;
32734;SDS011;19112;51.076;3.706;2023-01-25T01:11:47;111.40;;;45.00;;
32734;SDS011;19112;51.076;3.706;2023-01-25T01:14:13;114.30;;;46.83;;
32734;SDS011;19112;51.076;3.706;2023-01-25T01:16:39;110.30;;;46.42;;
32734;SDS011;19112;51.076;3.706;2023-01-25T01:19:05;105.47;;;45.72;;
32734;SDS011;19112;51.076;3.706;2023-01-25T01:21:31;105.10;;;47.83;;
32734;SDS011;19112;51.076;3.706;2023-01-25T01:23:57;107.18;;;45.38;;
32734;SDS011;19112;51.076;3.706;2023-01-25T01:26:23;110.78;;;45.72;;
32734;SDS011;19112;51.076;3.706;2023-01-25T01:28:49;106.03;;;47.97;;
32734;SDS011;19112;51.076;3.706;2023-01-25T01:31:16;106.10;;;46.42;;
32734;SDS011;19112;51.076;3.706;2023-01-25T01:33:49;107.13;;;48.30;;
32734;SDS011;19112;51.076;3.706;2023-01-25T01:36:17;117.88;;;49.20;;
32734;SDS011;19112;51.076;3.706;2023-01-25T01:38:45;112.15;;;46.72;;
32734;SDS011;19112;51.076;3.706;2023-01-25T01:41:11;106.80;;;45.97;;
32734;SDS011;19112;51.076;3.706;2023-01-25T01:43:38;110.32;;;46.88;;
32734;SDS011;19112;51.076;3.706;2023-01-25T01:49:05;114.85;;;47.88;;
32734;SDS011;19112;51.076;3.706;2023-01-25T01:51:54;105.63;;;45.47;;
32734;SDS011;19112;51.076;3.706;2023-01-25T01:54:46;108.18;;;45.20;;
32734;SDS011;19112;51.076;3.706;2023-01-25T01:57:19;112.05;;;47.30;;
32734;SDS011;19112;51.076;3.706;2023-01-25T01:59:52;117.82;;;49.15;;
32734;SDS011;19112;51.076;3.706;2023-01-25T02:02:28;119.50;;;49.75;;
32734;SDS011;19112;51.076;3.706;2023-01-25T02:04:55;115.15;;;49.13;;
32734;SDS011;19112;51.076;3.706;2023-01-25T02:07:32;113.72;;;49.25;;
32734;SDS011;19112;51.076;3.706;2023-01-25T02:10:01;120.13;;;48.65;;
32734;SDS011;19112;51.076;3.706;2023-01-25T02:12:31;120.00;;;51.20;;
32734;SDS011;19112;51.076;3.706;2023-01-25T02:14:57;124.72;;;51.67;;
32734;SDS011;19112;51.076;3.706;2023-01-25T02:17:30;122.03;;;49.30;;
32734;SDS011;19112;51.076;3.706;2023-01-25T02:25:45;119.20;;;50.10;;
32734;SDS011;19112;51.076;3.706;2023-01-25T02:28:17;115.88;;;48.15;;
32734;SDS011;19112;51.076;3.706;2023-01-25T02:30:48;112.38;;;49.45;;
32734;SDS011;19112;51.076;3.706;2023-01-25T02:33:15;120.13;;;49.83;;
32734;SDS011;19112;51.076;3.706;2023-01-25T02:38:15;118.28;;;51.13;;
32734;SDS011;19112;51.076;3.706;2023-01-25T02:40:44;116.18;;;47.53;;
32734;SDS011;19112;51.076;3.706;2023-01-25T02:43:37;125.15;;;52.70;;
32734;SDS011;19112;51.076;3.706;2023-01-25T02:48:47;126.63;;;49.95;;
32734;SDS011;19112;51.076;3.706;2023-01-25T02:51:13;117.32;;;50.95;;
32734;SDS011;19112;51.076;3.706;2023-01-25T02:53:39;116.63;;;49.22;;
32734;SDS011;19112;51.076;3.706;2023-01-25T02:56:05;128.35;;;52.00;;
32734;SDS011;19112;51.076;3.706;2023-01-25T02:58:32;123.35;;;50.83;;
32734;SDS011;19112;51.076;3.706;2023-01-25T03:00:57;123.32;;;53.50;;
32734;SDS011;19112;51.076;3.706;2023-01-25T03:03:24;131.38;;;52.28;;
32734;SDS011;19112;51.076;3.706;2023-01-25T03:05:50;113.88;;;48.42;;
32734;SDS011;19112;51.076;3.706;2023-01-25T03:08:16;125.03;;;51.92;;
32734;SDS011;19112;51.076;3.706;2023-01-25T03:10:42;134.05;;;51.08;;
32734;SDS011;19112;51.076;3.706;2023-01-25T03:13:08;120.18;;;49.72;;
32734;SDS011;19112;51.076;3.706;2023-01-25T03:15:35;122.93;;;52.20;;
32734;SDS011;19112;51.076;3.706;2023-01-25T03:18:01;115.93;;;50.40;;
32734;SDS011;19112;51.076;3.706;2023-01-25T03:20:26;125.55;;;52.63;;
32734;SDS011;19112;51.076;3.706;2023-01-25T03:22:53;119.13;;;50.45;;
32734;SDS011;19112;51.076;3.706;2023-01-25T03:25:19;125.20;;;52.67;;
32734;SDS011;19112;51.076;3.706;2023-01-25T03:27:45;124.25;;;50.95;;
32734;SDS011;19112;51.076;3.706;2023-01-25T03:30:11;120.30;;;51.35;;
32734;SDS011;19112;51.076;3.706;2023-01-25T03:32:37;128.88;;;53.75;;
32734;SDS011;19112;51.076;3.706;2023-01-25T03:35:03;123.95;;;51.50;;
32734;SDS011;19112;51.076;3.706;2023-01-25T03:37:29;121.03;;;50.00;;
32734;SDS011;19112;51.076;3.706;2023-01-25T03:39:58;127.65;;;53.65;;
32734;SDS011;19112;51.076;3.706;2023-01-25T03:42:24;122.65;;;51.88;;
32734;SDS011;19112;51.076;3.706;2023-01-25T03:44:50;114.20;;;48.28;;
32734;SDS011;19112;51.076;3.706;2023-01-25T03:47:16;122.28;;;52.08;;
32734;SDS011;19112;51.076;3.706;2023-01-25T03:49:41;123.68;;;49.80;;
32734;SDS011;19112;51.076;3.706;2023-01-25T03:52:07;122.95;;;49.60;;
32734;SDS011;19112;51.076;3.706;2023-01-25T03:54:33;124.38;;;50.45;;
32734;SDS011;19112;51.076;3.706;2023-01-25T03:56:59;117.93;;;48.42;;
32734;SDS011;19112;51.076;3.706;2023-01-25T03:59:25;125.57;;;50.35;;
32734;SDS011;19112;51.076;3.706;2023-01-25T04:01:51;121.10;;;50.35;;
32734;SDS011;19112;51.076;3.706;2023-01-25T04:04:17;118.63;;;49.65;;
32734;SDS011;19112;51.076;3.706;2023-01-25T04:06:43;127.90;;;50.67;;
32734;SDS011;19112;51.076;3.706;2023-01-25T04:09:08;122.85;;;49.50;;
32734;SDS011;19112;51.076;3.706;2023-01-25T04:11:34;126.13;;;51.13;;
32734;SDS011;19112;51.076;3.706;2023-01-25T04:14:00;124.30;;;50.20;;
32734;SDS011;19112;51.076;3.706;2023-01-25T04:16:26;128.02;;;50.83;;
32734;SDS011;19112;51.076;3.706;2023-01-25T04:18:54;130.02;;;50.28;;
32734;SDS011;19112;51.076;3.706;2023-01-25T04:21:20;134.95;;;54.05;;
32734;SDS011;19112;51.076;3.706;2023-01-25T04:23:46;123.35;;;50.83;;
32734;SDS011;19112;51.076;3.706;2023-01-25T04:26:14;129.48;;;50.53;;
32734;SDS011;19112;51.076;3.706;2023-01-25T04:28:40;137.63;;;53.60;;
32734;SDS011;19112;51.076;3.706;2023-01-25T04:31:06;122.50;;;48.80;;
32734;SDS011;19112;51.076;3.706;2023-01-25T04:33:32;126.90;;;50.80;;
32734;SDS011;19112;51.076;3.706;2023-01-25T04:35:58;119.53;;;49.58;;
32734;SDS011;19112;51.076;3.706;2023-01-25T04:38:25;130.15;;;51.03;;
32734;SDS011;19112;51.076;3.706;2023-01-25T04:40:51;126.85;;;52.33;;
32734;SDS011;19112;51.076;3.706;2023-01-25T04:43:17;126.43;;;49.47;;
32734;SDS011;19112;51.076;3.706;2023-01-25T04:45:43;126.15;;;51.58;;
32734;SDS011;19112;51.076;3.706;2023-01-25T04:48:10;130.02;;;52.15;;
32734;SDS011;19112;51.076;3.706;2023-01-25T04:50:37;127.22;;;52.00;;
32734;SDS011;19112;51.076;3.706;2023-01-25T04:53:05;134.18;;;52.25;;
32734;SDS011;19112;51.076;3.706;2023-01-25T04:55:32;123.57;;;49.20;;
32734;SDS011;19112;51.076;3.706;2023-01-25T04:57:59;134.93;;;53.05;;
32734;SDS011;19112;51.076;3.706;2023-01-25T05:00:26;119.10;;;49.70;;
32734;SDS011;19112;51.076;3.706;2023-01-25T05:02:52;133.95;;;51.80;;
32734;SDS011;19112;51.076;3.706;2023-01-25T05:05:18;126.47;;;51.38;;
32734;SDS011;19112;51.076;3.706;2023-01-25T05:07:44;134.20;;;53.92;;
32734;SDS011;19112;51.076;3.706;2023-01-25T05:10:10;128.77;;;50.55;;
32734;SDS011;19112;51.076;3.706;2023-01-25T05:12:36;131.30;;;50.03;;
32734;SDS011;19112;51.076;3.706;2023-01-25T05:15:02;125.18;;;51.40;;
32734;SDS011;19112;51.076;3.706;2023-01-25T05:17:29;130.00;;;52.63;;
32734;SDS011;19112;51.076;3.706;2023-01-25T05:19:55;127.38;;;52.35;;
32734;SDS011;19112;51.076;3.706;2023-01-25T05:22:21;125.10;;;50.55;;
32734;SDS011;19112;51.076;3.706;2023-01-25T05:24:47;114.43;;;49.88;;
32734;SDS011;19112;51.076;3.706;2023-01-25T05:27:17;139.75;;;51.30;;
32734;SDS011;19112;51.076;3.706;2023-01-25T05:29:45;129.95;;;49.83;;
32734;SDS011;19112;51.076;3.706;2023-01-25T05:34:43;132.48;;;53.17;;
32734;SDS011;19112;51.076;3.706;2023-01-25T05:37:10;126.45;;;49.78;;
32734;SDS011;19112;51.076;3.706;2023-01-25T05:39:38;127.10;;;51.10;;
32734;SDS011;19112;51.076;3.706;2023-01-25T05:42:10;126.40;;;48.65;;
32734;SDS011;19112;51.076;3.706;2023-01-25T05:44:38;121.38;;;49.25;;
32734;SDS011;19112;51.076;3.706;2023-01-25T05:47:05;122.00;;;48.97;;
32734;SDS011;19112;51.076;3.706;2023-01-25T05:49:31;124.10;;;50.00;;
32734;SDS011;19112;51.076;3.706;2023-01-25T05:51:57;133.13;;;51.58;;
32734;SDS011;19112;51.076;3.706;2023-01-25T05:54:23;125.30;;;49.75;;
32734;SDS011;19112;51.076;3.706;2023-01-25T05:56:49;119.38;;;47.85;;
32734;SDS011;19112;51.076;3.706;2023-01-25T05:59:14;126.72;;;51.25;;
32734;SDS011;19112;51.076;3.706;2023-01-25T06:01:41;129.60;;;51.47;;
32734;SDS011;19112;51.076;3.706;2023-01-25T06:04:08;128.88;;;48.78;;
32734;SDS011;19112;51.076;3.706;2023-01-25T06:06:41;129.38;;;51.17;;
32734;SDS011;19112;51.076;3.706;2023-01-25T06:09:06;122.32;;;47.97;;
32734;SDS011;19112;51.076;3.706;2023-01-25T06:11:35;123.90;;;50.55;;
32734;SDS011;19112;51.076;3.706;2023-01-25T06:14:01;121.93;;;48.95;;
32734;SDS011;19112;51.076;3.706;2023-01-25T06:16:27;124.30;;;48.17;;
32734;SDS011;19112;51.076;3.706;2023-01-25T06:18:52;124.68;;;48.92;;
32734;SDS011;19112;51.076;3.706;2023-01-25T06:21:18;124.60;;;49.05;;
32734;SDS011;19112;51.076;3.706;2023-01-25T06:23:44;128.73;;;50.67;;
32734;SDS011;19112;51.076;3.706;2023-01-25T06:26:11;118.18;;;49.20;;
32734;SDS011;19112;51.076;3.706;2023-01-25T06:28:38;116.47;;;47.70;;
32734;SDS011;19112;51.076;3.706;2023-01-25T06:33:43;126.53;;;50.20;;
32734;SDS011;19112;51.076;3.706;2023-01-25T06:38:43;123.07;;;48.13;;
32734;SDS011;19112;51.076;3.706;2023-01-25T06:41:14;128.57;;;50.03;;
32734;SDS011;19112;51.076;3.706;2023-01-25T06:43:40;125.65;;;50.60;;
32734;SDS011;19112;51.076;3.706;2023-01-25T06:46:07;122.97;;;48.58;;
32734;SDS011;19112;51.076;3.706;2023-01-25T06:48:35;129.63;;;49.75;;
32734;SDS011;19112;51.076;3.706;2023-01-25T06:51:02;121.28;;;48.95;;
32734;SDS011;19112;51.076;3.706;2023-01-25T06:53:32;123.90;;;48.80;;
32734;SDS011;19112;51.076;3.706;2023-01-25T06:56:17;125.72;;;47.63;;
32734;SDS011;19112;51.076;3.706;2023-01-25T06:58:46;128.10;;;51.15;;
32734;SDS011;19112;51.076;3.706;2023-01-25T07:06:15;114.38;;;46.45;;
32734;SDS011;19112;51.076;3.706;2023-01-25T07:08:41;119.47;;;45.60;;
32734;SDS011;19112;51.076;3.706;2023-01-25T07:11:09;116.68;;;47.70;;
32734;SDS011;19112;51.076;3.706;2023-01-25T07:13:38;121.15;;;47.53;;
32734;SDS011;19112;51.076;3.706;2023-01-25T07:16:07;124.78;;;48.60;;
32734;SDS011;19112;51.076;3.706;2023-01-25T07:18:36;125.63;;;47.92;;
32734;SDS011;19112;51.076;3.706;2023-01-25T07:21:07;123.93;;;49.33;;
32734;SDS011;19112;51.076;3.706;2023-01-25T07:23:42;123.55;;;49.38;;
32734;SDS011;19112;51.076;3.706;2023-01-25T07:26:30;118.03;;;48.17;;
32734;SDS011;19112;51.076;3.706;2023-01-25T07:28:56;120.82;;;48.35;;
32734;SDS011;19112;51.076;3.706;2023-01-25T07:31:23;131.68;;;50.00;;
32734;SDS011;19112;51.076;3.706;2023-01-25T07:33:50;124.30;;;49.88;;
32734;SDS011;19112;51.076;3.706;2023-01-25T07:36:18;126.75;;;49.70;;
32734;SDS011;19112;51.076;3.706;2023-01-25T07:38:46;125.82;;;48.00;;
32734;SDS011;19112;51.076;3.706;2023-01-25T07:41:12;124.88;;;48.78;;
32734;SDS011;19112;51.076;3.706;2023-01-25T07:43:40;125.13;;;48.72;;
32734;SDS011;19112;51.076;3.706;2023-01-25T07:46:06;127.57;;;48.35;;
32734;SDS011;19112;51.076;3.706;2023-01-25T07:48:35;129.27;;;50.17;;
32734;SDS011;19112;51.076;3.706;2023-01-25T07:51:02;131.10;;;50.63;;
32734;SDS011;19112;51.076;3.706;2023-01-25T07:53:40;133.48;;;50.42;;
32734;SDS011;19112;51.076;3.706;2023-01-25T07:56:08;126.18;;;49.65;;
32734;SDS011;19112;51.076;3.706;2023-01-25T07:58:35;131.40;;;51.03;;
32734;SDS011;19112;51.076;3.706;2023-01-25T08:01:05;126.03;;;49.65;;
32734;SDS011;19112;51.076;3.706;2023-01-25T08:03:39;128.32;;;49.58;;
32734;SDS011;19112;51.076;3.706;2023-01-25T08:06:05;127.05;;;48.33;;
32734;SDS011;19112;51.076;3.706;2023-01-25T08:08:34;131.40;;;51.40;;
32734;SDS011;19112;51.076;3.706;2023-01-25T08:11:07;132.07;;;50.30;;
32734;SDS011;19112;51.076;3.706;2023-01-25T08:13:45;134.10;;;50.78;;
32734;SDS011;19112;51.076;3.706;2023-01-25T08:16:14;125.65;;;48.22;;
32734;SDS011;19112;51.076;3.706;2023-01-25T08:18:45;130.00;;;49.80;;
32734;SDS011;19112;51.076;3.706;2023-01-25T08:21:13;135.40;;;53.05;;
32734;SDS011;19112;51.076;3.706;2023-01-25T08:23:38;130.70;;;49.75;;
32734;SDS011;19112;51.076;3.706;2023-01-25T08:26:05;139.75;;;50.67;;
32734;SDS011;19112;51.076;3.706;2023-01-25T08:28:33;136.05;;;49.95;;
32734;SDS011;19112;51.076;3.706;2023-01-25T08:31:13;141.25;;;51.88;;
32734;SDS011;19112;51.076;3.706;2023-01-25T08:33:45;138.85;;;52.05;;
32734;SDS011;19112;51.076;3.706;2023-01-25T08:36:16;133.65;;;51.33;;
32734;SDS011;19112;51.076;3.706;2023-01-25T08:38:43;134.65;;;52.25;;
32734;SDS011;19112;51.076;3.706;2023-01-25T08:41:12;134.27;;;51.28;;
32734;SDS011;19112;51.076;3.706;2023-01-25T08:43:41;135.25;;;51.28;;
32734;SDS011;19112;51.076;3.706;2023-01-25T08:46:08;133.30;;;49.90;;
32734;SDS011;19112;51.076;3.706;2023-01-25T08:48:35;131.90;;;50.05;;
32734;SDS011;19112;51.076;3.706;2023-01-25T08:51:01;128.82;;;49.60;;
32734;SDS011;19112;51.076;3.706;2023-01-25T08:53:29;130.85;;;50.95;;
32734;SDS011;19112;51.076;3.706;2023-01-25T08:56:01;129.90;;;53.15;;
32734;SDS011;19112;51.076;3.706;2023-01-25T08:58:29;137.02;;;54.70;;
32734;SDS011;19112;51.076;3.706;2023-01-25T09:00:59;141.32;;;52.25;;
32734;SDS011;19112;51.076;3.706;2023-01-25T09:03:27;135.85;;;50.40;;
32734;SDS011;19112;51.076;3.706;2023-01-25T09:05:53;140.55;;;51.63;;
32734;SDS011;19112;51.076;3.706;2023-01-25T09:08:19;145.80;;;55.10;;
32734;SDS011;19112;51.076;3.706;2023-01-25T09:10:45;151.93;;;58.38;;
32734;SDS011;19112;51.076;3.706;2023-01-25T09:13:11;158.98;;;58.17;;
32734;SDS011;19112;51.076;3.706;2023-01-25T09:15:37;156.38;;;56.53;;
32734;SDS011;19112;51.076;3.706;2023-01-25T09:18:03;149.77;;;54.20;;
32734;SDS011;19112;51.076;3.706;2023-01-25T09:20:29;158.85;;;55.85;;
32734;SDS011;19112;51.076;3.706;2023-01-25T09:22:54;136.98;;;52.65;;
32734;SDS011;19112;51.076;3.706;2023-01-25T09:25:20;151.73;;;55.05;;
32734;SDS011;19112;51.076;3.706;2023-01-25T09:27:49;152.18;;;56.53;;
32734;SDS011;19112;51.076;3.706;2023-01-25T09:30:16;156.65;;;56.75;;
32734;SDS011;19112;51.076;3.706;2023-01-25T09:32:42;153.45;;;53.17;;
32734;SDS011;19112;51.076;3.706;2023-01-25T09:35:08;152.13;;;55.22;;
32734;SDS011;19112;51.076;3.706;2023-01-25T09:37:34;152.60;;;55.88;;
32734;SDS011;19112;51.076;3.706;2023-01-25T09:40:00;145.70;;;54.47;;
32734;SDS011;19112;51.076;3.706;2023-01-25T09:42:34;149.48;;;54.92;;
32734;SDS011;19112;51.076;3.706;2023-01-25T09:45:34;152.82;;;52.90;;
32734;SDS011;19112;51.076;3.706;2023-01-25T09:54:04;153.40;;;52.90;;
32734;SDS011;19112;51.076;3.706;2023-01-25T09:56:34;157.23;;;55.45;;
32734;SDS011;19112;51.076;3.706;2023-01-25T09:59:03;161.23;;;56.78;;
32734;SDS011;19112;51.076;3.706;2023-01-25T10:01:48;149.80;;;54.63;;
32734;SDS011;19112;51.076;3.706;2023-01-25T10:04:39;154.77;;;54.28;;
32734;SDS011;19112;51.076;3.706;2023-01-25T10:07:27;152.98;;;57.60;;
32734;SDS011;19112;51.076;3.706;2023-01-25T10:10:17;159.77;;;57.05;;
32734;SDS011;19112;51.076;3.706;2023-01-25T10:12:52;158.98;;;58.00;;
32734;SDS011;19112;51.076;3.706;2023-01-25T10:17:47;154.30;;;56.80;;
32734;SDS011;19112;51.076;3.706;2023-01-25T10:20:43;159.82;;;57.75;;
32734;SDS011;19112;51.076;3.706;2023-01-25T10:29:16;154.57;;;54.40;;
32734;SDS011;19112;51.076;3.706;2023-01-25T10:34:19;140.35;;;52.95;;
32734;SDS011;19112;51.076;3.706;2023-01-25T10:37:01;161.97;;;56.73;;
32734;SDS011;19112;51.076;3.706;2023-01-25T10:39:42;162.25;;;56.72;;
32734;SDS011;19112;51.076;3.706;2023-01-25T10:42:37;161.35;;;57.85;;
32734;SDS011;19112;51.076;3.706;2023-01-25T10:45:13;161.65;;;56.85;;
32734;SDS011;19112;51.076;3.706;2023-01-25T10:47:41;153.00;;;56.92;;
32734;SDS011;19112;51.076;3.706;2023-01-25T10:50:57;164.25;;;56.25;;
32734;SDS011;19112;51.076;3.706;2023-01-25T10:56:25;147.30;;;54.58;;
32734;SDS011;19112;51.076;3.706;2023-01-25T10:59:04;142.25;;;52.08;;
32734;SDS011;19112;51.076;3.706;2023-01-25T11:01:51;153.40;;;52.60;;
32734;SDS011;19112;51.076;3.706;2023-01-25T11:04:27;141.48;;;53.42;;
32734;SDS011;19112;51.076;3.706;2023-01-25T11:06:57;152.20;;;52.72;;
32734;SDS011;19112;51.076;3.706;2023-01-25T11:11:55;153.27;;;56.58;;
32734;SDS011;19112;51.076;3.706;2023-01-25T11:14:26;151.07;;;55.70;;
32734;SDS011;19112;51.076;3.706;2023-01-25T11:16:55;160.95;;;57.22;;
32734;SDS011;19112;51.076;3.706;2023-01-25T11:19:24;148.38;;;53.70;;
32734;SDS011;19112;51.076;3.706;2023-01-25T11:22:00;148.13;;;54.65;;
32734;SDS011;19112;51.076;3.706;2023-01-25T11:24:48;152.27;;;53.30;;
32734;SDS011;19112;51.076;3.706;2023-01-25T11:27:21;144.38;;;52.80;;
32734;SDS011;19112;51.076;3.706;2023-01-25T11:30:13;143.40;;;51.50;;
32734;SDS011;19112;51.076;3.706;2023-01-25T11:32:40;142.23;;;53.70;;
32734;SDS011;19112;51.076;3.706;2023-01-25T11:35:26;141.52;;;55.15;;
32734;SDS011;19112;51.076;3.706;2023-01-25T11:38:12;141.00;;;52.33;;
32734;SDS011;19112;51.076;3.706;2023-01-25T11:52:24;143.93;;;52.22;;
32734;SDS011;19112;51.076;3.706;2023-01-25T12:07:02;140.43;;;50.28;;
32734;SDS011;19112;51.076;3.706;2023-01-25T12:12:43;133.80;;;50.40;;
32734;SDS011;19112;51.076;3.706;2023-01-25T12:19:34;127.45;;;46.67;;
32734;SDS011;19112;51.076;3.706;2023-01-25T12:22:50;134.23;;;48.13;;
32734;SDS011;19112;51.076;3.706;2023-01-25T12:28:18;123.28;;;48.28;;
32734;SDS011;19112;51.076;3.706;2023-01-25T12:33:37;121.80;;;46.40;;
32734;SDS011;19112;51.076;3.706;2023-01-25T12:39:07;127.43;;;48.78;;
32734;SDS011;19112;51.076;3.706;2023-01-25T12:44:58;120.68;;;46.80;;
32734;SDS011;19112;51.076;3.706;2023-01-25T12:47:52;126.53;;;47.15;;
32734;SDS011;19112;51.076;3.706;2023-01-25T12:50:24;138.75;;;51.80;;
32734;SDS011;19112;51.076;3.706;2023-01-25T12:53:39;118.03;;;45.33;;
32734;SDS011;19112;51.076;3.706;2023-01-25T12:56:16;126.78;;;46.90;;
32734;SDS011;19112;51.076;3.706;2023-01-25T13:02:13;127.63;;;49.75;;
32734;SDS011;19112;51.076;3.706;2023-01-25T13:05:34;125.57;;;46.75;;
32734;SDS011;19112;51.076;3.706;2023-01-25T13:08:30;119.43;;;43.72;;
32734;SDS011;19112;51.076;3.706;2023-01-25T13:11:36;118.57;;;46.15;;
32734;SDS011;19112;51.076;3.706;2023-01-25T13:16:40;128.00;;;47.25;;
32734;SDS011;19112;51.076;3.706;2023-01-25T13:19:37;124.22;;;48.50;;
32734;SDS011;19112;51.076;3.706;2023-01-25T13:22:07;125.30;;;44.58;;
32734;SDS011;19112;51.076;3.706;2023-01-25T13:27:28;125.75;;;46.95;;
32734;SDS011;19112;51.076;3.706;2023-01-25T13:29:59;116.45;;;45.20;;
32734;SDS011;19112;51.076;3.706;2023-01-25T13:38:25;131.57;;;46.58;;
32734;SDS011;19112;51.076;3.706;2023-01-25T13:41:10;115.88;;;44.97;;
32734;SDS011;19112;51.076;3.706;2023-01-25T13:43:44;130.77;;;48.55;;
32734;SDS011;19112;51.076;3.706;2023-01-25T13:46:14;133.40;;;49.22;;
32734;SDS011;19112;51.076;3.706;2023-01-25T13:48:48;126.32;;;45.72;;
32734;SDS011;19112;51.076;3.706;2023-01-25T13:51:22;136.85;;;49.78;;
32734;SDS011;19112;51.076;3.706;2023-01-25T13:53:56;124.60;;;46.25;;
32734;SDS011;19112;51.076;3.706;2023-01-25T13:56:28;124.65;;;46.53;;
32734;SDS011;19112;51.076;3.706;2023-01-25T13:58:57;119.00;;;46.05;;
32734;SDS011;19112;51.076;3.706;2023-01-25T14:01:23;125.95;;;46.22;;
32734;SDS011;19112;51.076;3.706;2023-01-25T14:03:51;128.50;;;48.38;;
32734;SDS011;19112;51.076;3.706;2023-01-25T14:06:27;127.85;;;47.47;;
32734;SDS011;19112;51.076;3.706;2023-01-25T14:09:02;124.13;;;45.97;;
32734;SDS011;19112;51.076;3.706;2023-01-25T14:11:59;123.88;;;45.35;;
32734;SDS011;19112;51.076;3.706;2023-01-25T14:14:33;116.38;;;44.95;;
32734;SDS011;19112;51.076;3.706;2023-01-25T14:17:01;137.07;;;47.42;;
32734;SDS011;19112;51.076;3.706;2023-01-25T14:19:36;135.68;;;49.72;;
32734;SDS011;19112;51.076;3.706;2023-01-25T14:22:27;136.05;;;48.30;;
32734;SDS011;19112;51.076;3.706;2023-01-25T14:25:11;128.50;;;45.05;;
32734;SDS011;19112;51.076;3.706;2023-01-25T14:30:43;135.25;;;49.25;;
32734;SDS011;19112;51.076;3.706;2023-01-25T14:33:15;128.68;;;48.95;;
32734;SDS011;19112;51.076;3.706;2023-01-25T14:35:49;136.88;;;48.03;;
32734;SDS011;19112;51.076;3.706;2023-01-25T14:38:27;143.23;;;51.90;;
32734;SDS011;19112;51.076;3.706;2023-01-25T14:40:57;134.57;;;50.10;;
32734;SDS011;19112;51.076;3.706;2023-01-25T14:43:54;138.82;;;50.40;;
32734;SDS011;19112;51.076;3.706;2023-01-25T14:46:30;134.93;;;48.03;;
32734;SDS011;19112;51.076;3.706;2023-01-25T14:54:27;125.10;;;46.88;;
32734;SDS011;19112;51.076;3.706;2023-01-25T14:56:56;128.13;;;47.33;;
32734;SDS011;19112;51.076;3.706;2023-01-25T14:59:33;107.18;;;36.47;;
32734;SDS011;19112;51.076;3.706;2023-01-25T15:07:44;104.82;;;35.75;;
32734;SDS011;19112;51.076;3.706;2023-01-25T15:10:20;107.85;;;37.80;;
32734;SDS011;19112;51.076;3.706;2023-01-25T15:15:35;111.60;;;37.40;;
32734;SDS011;19112;51.076;3.706;2023-01-25T15:18:01;110.95;;;38.00;;
32734;SDS011;19112;51.076;3.706;2023-01-25T15:25:57;109.75;;;37.30;;
32734;SDS011;19112;51.076;3.706;2023-01-25T15:28:26;101.32;;;36.10;;
32734;SDS011;19112;51.076;3.706;2023-01-25T15:30:58;102.72;;;35.10;;
32734;SDS011;19112;51.076;3.706;2023-01-25T15:33:25;107.30;;;37.03;;
32734;SDS011;19112;51.076;3.706;2023-01-25T15:35:53;101.18;;;37.13;;
32734;SDS011;19112;51.076;3.706;2023-01-25T15:38:20;108.47;;;35.55;;
32734;SDS011;19112;51.076;3.706;2023-01-25T15:40:46;108.45;;;38.88;;
32734;SDS011;19112;51.076;3.706;2023-01-25T15:43:16;104.80;;;37.60;;
32734;SDS011;19112;51.076;3.706;2023-01-25T15:45:44;107.85;;;38.22;;
32734;SDS011;19112;51.076;3.706;2023-01-25T15:48:22;99.97;;;33.75;;
32734;SDS011;19112;51.076;3.706;2023-01-25T15:50:53;104.38;;;35.03;;
32734;SDS011;19112;51.076;3.706;2023-01-25T15:53:20;108.30;;;37.35;;
32734;SDS011;19112;51.076;3.706;2023-01-25T15:55:47;107.50;;;39.08;;
32734;SDS011;19112;51.076;3.706;2023-01-25T16:00:48;104.93;;;34.53;;
32734;SDS011;19112;51.076;3.706;2023-01-25T16:03:14;106.97;;;37.97;;
32734;SDS011;19112;51.076;3.706;2023-01-25T16:05:42;110.75;;;37.55;;
32734;SDS011;19112;51.076;3.706;2023-01-25T16:08:11;123.32;;;42.20;;
32734;SDS011;19112;51.076;3.706;2023-01-25T16:10:43;121.82;;;39.90;;
32734;SDS011;19112;51.076;3.706;2023-01-25T16:13:09;109.75;;;40.35;;
32734;SDS011;19112;51.076;3.706;2023-01-25T16:15:36;119.43;;;44.55;;
32734;SDS011;19112;51.076;3.706;2023-01-25T16:18:03;117.13;;;40.70;;
32734;SDS011;19112;51.076;3.706;2023-01-25T16:20:29;110.28;;;38.53;;
32734;SDS011;19112;51.076;3.706;2023-01-25T16:22:55;107.35;;;39.38;;
32734;SDS011;19112;51.076;3.706;2023-01-25T16:25:21;111.15;;;39.28;;
32734;SDS011;19112;51.076;3.706;2023-01-25T16:27:48;122.43;;;39.03;;
32734;SDS011;19112;51.076;3.706;2023-01-25T16:30:21;118.18;;;38.58;;
32734;SDS011;19112;51.076;3.706;2023-01-25T16:32:51;115.15;;;40.42;;
32734;SDS011;19112;51.076;3.706;2023-01-25T16:35:17;116.15;;;38.85;;
32734;SDS011;19112;51.076;3.706;2023-01-25T16:37:44;117.68;;;41.13;;
32734;SDS011;19112;51.076;3.706;2023-01-25T16:40:18;115.00;;;39.95;;